sensor_id;sensor_type;location;lat;lon;timestamp;P1;durP1;ratioP1;P2;durP2;ratioP2
55025;SDS011;40925;45.666;18.994;2023-03-24T17:52:16;31.95;;;19.30;;
55025;SDS011;40925;45.666;18.994;2023-03-24T17:55:23;27.25;;;15.15;;
55025;SDS011;40925;45.666;18.994;2023-03-24T17:58:21;29.83;;;15.00;;
55025;SDS011;40925;45.666;18.994;2023-03-24T18:01:25;23.38;;;13.27;;
55025;SDS011;40925;45.666;18.994;2023-03-24T18:09:37;16.17;;;9.65;;
55025;SDS011;40925;45.666;18.994;2023-03-24T18:12:04;17.13;;;9.27;;
55025;SDS011;40925;45.666;18.994;2023-03-24T18:14:30;13.60;;;8.50;;
55025;SDS011;40925;45.666;18.994;2023-03-24T18:16:59;12.27;;;7.85;;
55025;SDS011;40925;45.666;18.994;2023-03-24T18:19:45;12.38;;;7.90;;
55025;SDS011;40925;45.666;18.994;2023-03-24T18:22:15;12.23;;;8.35;;
55025;SDS011;40925;45.666;18.994;2023-03-24T18:24:51;11.40;;;7.90;;
55025;SDS011;40925;45.666;18.994;2023-03-24T18:27:31;11.82;;;6.05;;
55025;SDS011;40925;45.666;18.994;2023-03-24T18:30:00;11.15;;;7.40;;
55025;SDS011;40925;45.666;18.994;2023-03-24T18:39:23;12.73;;;8.90;;
55025;SDS011;40925;45.666;18.994;2023-03-24T18:42:13;33.08;;;11.93;;
55025;SDS011;40925;45.666;18.994;2023-03-24T18:44:44;38.20;;;11.52;;
55025;SDS011;40925;45.666;18.994;2023-03-24T18:47:37;24.42;;;9.02;;
55025;SDS011;40925;45.666;18.994;2023-03-24T18:54:00;17.08;;;9.30;;
55025;SDS011;40925;45.666;18.994;2023-03-24T18:56:34;16.50;;;9.88;;
55025;SDS011;40925;45.666;18.994;2023-03-24T18:59:08;21.92;;;12.55;;
55025;SDS011;40925;45.666;18.994;2023-03-24T19:01:38;16.10;;;8.00;;
55025;SDS011;40925;45.666;18.994;2023-03-24T19:04:09;12.02;;;6.30;;
55025;SDS011;40925;45.666;18.994;2023-03-24T19:06:43;12.60;;;5.93;;
55025;SDS011;40925;45.666;18.994;2023-03-24T19:09:59;10.15;;;5.32;;
55025;SDS011;40925;45.666;18.994;2023-03-24T19:12:49;6.00;;;3.85;;
55025;SDS011;40925;45.666;18.994;2023-03-24T19:15:47;5.40;;;3.05;;
55025;SDS011;40925;45.666;18.994;2023-03-24T19:18:24;5.32;;;3.35;;
55025;SDS011;40925;45.666;18.994;2023-03-24T19:20:56;7.63;;;3.03;;
55025;SDS011;40925;45.666;18.994;2023-03-24T19:23:47;5.45;;;3.30;;
55025;SDS011;40925;45.666;18.994;2023-03-24T19:26:14;7.88;;;3.30;;
55025;SDS011;40925;45.666;18.994;2023-03-24T19:29:22;6.65;;;3.40;;
55025;SDS011;40925;45.666;18.994;2023-03-24T19:32:27;5.63;;;3.28;;
55025;SDS011;40925;45.666;18.994;2023-03-24T19:42:14;4.93;;;2.92;;
55025;SDS011;40925;45.666;18.994;2023-03-24T19:45:03;5.65;;;2.90;;
55025;SDS011;40925;45.666;18.994;2023-03-24T19:48:12;4.65;;;2.83;;
55025;SDS011;40925;45.666;18.994;2023-03-24T19:53:49;6.82;;;3.00;;
55025;SDS011;40925;45.666;18.994;2023-03-24T19:56:15;6.35;;;3.00;;
55025;SDS011;40925;45.666;18.994;2023-03-24T19:58:44;6.47;;;3.10;;
55025;SDS011;40925;45.666;18.994;2023-03-24T20:01:13;5.30;;;2.80;;
55025;SDS011;40925;45.666;18.994;2023-03-24T20:03:54;4.15;;;2.90;;
55025;SDS011;40925;45.666;18.994;2023-03-24T20:06:40;4.63;;;2.97;;
55025;SDS011;40925;45.666;18.994;2023-03-24T20:09:10;7.28;;;3.38;;
55025;SDS011;40925;45.666;18.994;2023-03-24T20:11:40;7.22;;;3.20;;
55025;SDS011;40925;45.666;18.994;2023-03-24T20:14:11;6.88;;;2.97;;
55025;SDS011;40925;45.666;18.994;2023-03-24T20:16:59;5.90;;;3.70;;
55025;SDS011;40925;45.666;18.994;2023-03-24T20:19:54;6.05;;;3.40;;
55025;SDS011;40925;45.666;18.994;2023-03-24T20:22:22;9.40;;;3.00;;
55025;SDS011;40925;45.666;18.994;2023-03-24T20:27:29;5.38;;;3.38;;
55025;SDS011;40925;45.666;18.994;2023-03-24T20:30:12;8.10;;;3.20;;
55025;SDS011;40925;45.666;18.994;2023-03-24T20:32:46;7.80;;;3.22;;
55025;SDS011;40925;45.666;18.994;2023-03-24T20:38:05;5.97;;;3.00;;
55025;SDS011;40925;45.666;18.994;2023-03-24T20:40:35;7.50;;;3.00;;
55025;SDS011;40925;45.666;18.994;2023-03-24T20:43:02;7.82;;;3.30;;
55025;SDS011;40925;45.666;18.994;2023-03-24T20:45:28;5.55;;;2.90;;
55025;SDS011;40925;45.666;18.994;2023-03-24T20:48:01;5.60;;;2.83;;
55025;SDS011;40925;45.666;18.994;2023-03-24T20:53:51;5.93;;;3.05;;
55025;SDS011;40925;45.666;18.994;2023-03-24T20:56:17;6.75;;;3.17;;
55025;SDS011;40925;45.666;18.994;2023-03-24T20:58:48;8.82;;;3.85;;
55025;SDS011;40925;45.666;18.994;2023-03-24T21:01:17;7.68;;;3.50;;
55025;SDS011;40925;45.666;18.994;2023-03-24T21:03:46;8.75;;;3.60;;
55025;SDS011;40925;45.666;18.994;2023-03-24T21:06:16;5.70;;;3.60;;
55025;SDS011;40925;45.666;18.994;2023-03-24T21:09:00;6.82;;;3.80;;
55025;SDS011;40925;45.666;18.994;2023-03-24T21:11:29;4.72;;;3.00;;
55025;SDS011;40925;45.666;18.994;2023-03-24T21:13:58;5.50;;;3.40;;
55025;SDS011;40925;45.666;18.994;2023-03-24T21:16:26;7.32;;;3.47;;
55025;SDS011;40925;45.666;18.994;2023-03-24T21:18:59;5.32;;;2.78;;
55025;SDS011;40925;45.666;18.994;2023-03-24T21:21:46;6.05;;;2.78;;
55025;SDS011;40925;45.666;18.994;2023-03-24T21:24:20;5.90;;;2.30;;
55025;SDS011;40925;45.666;18.994;2023-03-24T21:26:47;5.13;;;2.65;;
55025;SDS011;40925;45.666;18.994;2023-03-24T21:29:21;3.83;;;2.53;;
55025;SDS011;40925;45.666;18.994;2023-03-24T21:31:54;4.65;;;2.30;;
55025;SDS011;40925;45.666;18.994;2023-03-24T21:34:40;3.75;;;2.67;;
55025;SDS011;40925;45.666;18.994;2023-03-24T21:37:18;4.78;;;2.70;;
55025;SDS011;40925;45.666;18.994;2023-03-24T21:40:17;5.93;;;2.65;;
55025;SDS011;40925;45.666;18.994;2023-03-24T21:42:55;4.35;;;2.22;;
55025;SDS011;40925;45.666;18.994;2023-03-24T21:45:36;4.63;;;2.60;;
55025;SDS011;40925;45.666;18.994;2023-03-24T21:48:18;4.80;;;2.05;;
55025;SDS011;40925;45.666;18.994;2023-03-24T21:51:11;4.32;;;2.28;;
55025;SDS011;40925;45.666;18.994;2023-03-24T21:53:44;3.55;;;1.90;;
55025;SDS011;40925;45.666;18.994;2023-03-24T21:56:21;3.28;;;2.05;;
55025;SDS011;40925;45.666;18.994;2023-03-24T21:58:51;5.32;;;2.00;;
55025;SDS011;40925;45.666;18.994;2023-03-24T22:01:39;3.72;;;2.10;;
55025;SDS011;40925;45.666;18.994;2023-03-24T22:04:22;4.00;;;2.30;;
55025;SDS011;40925;45.666;18.994;2023-03-24T22:06:51;2.90;;;2.08;;
55025;SDS011;40925;45.666;18.994;2023-03-24T22:09:21;4.78;;;2.00;;
55025;SDS011;40925;45.666;18.994;2023-03-24T22:11:54;4.13;;;2.05;;
55025;SDS011;40925;45.666;18.994;2023-03-24T22:14:25;4.70;;;2.38;;
55025;SDS011;40925;45.666;18.994;2023-03-24T22:16:55;8.45;;;2.33;;
55025;SDS011;40925;45.666;18.994;2023-03-24T22:19:24;4.72;;;2.65;;
55025;SDS011;40925;45.666;18.994;2023-03-24T22:21:51;4.82;;;2.38;;
55025;SDS011;40925;45.666;18.994;2023-03-24T22:24:31;3.72;;;2.30;;
55025;SDS011;40925;45.666;18.994;2023-03-24T22:27:05;5.75;;;2.80;;
55025;SDS011;40925;45.666;18.994;2023-03-24T22:29:46;5.65;;;2.60;;
55025;SDS011;40925;45.666;18.994;2023-03-24T22:32:16;4.70;;;2.40;;
55025;SDS011;40925;45.666;18.994;2023-03-24T22:38:13;5.38;;;2.50;;
55025;SDS011;40925;45.666;18.994;2023-03-24T22:59:40;5.25;;;2.97;;
55025;SDS011;40925;45.666;18.994;2023-03-24T23:02:28;5.53;;;2.55;;
55025;SDS011;40925;45.666;18.994;2023-03-24T23:11:46;3.85;;;2.45;;
55025;SDS011;40925;45.666;18.994;2023-03-24T23:14:23;4.70;;;2.60;;
55025;SDS011;40925;45.666;18.994;2023-03-24T23:17:10;4.07;;;2.15;;
55025;SDS011;40925;45.666;18.994;2023-03-24T23:20:21;4.18;;;2.50;;
